ONT weather

Ontario International Airport
Ontario, California, United States

Public forecast

Using degrees Fahrenheit for public forecast. Weather courtesy of forecast.io.

Current aviation weather report (METAR) for Ontario International Airport

Retrieved 2019/11/14 03:53 UTC (1 hour ago):

KONT 140353Z 28007KT 5SM HZ SCT250 17/12 A3002 RMK AO2 SLP158 T01670122

Aviation forecast (TAF) for Ontario International Airport

Retrieved 2019-11-14 00:30 UTC (4 hours ago):

TAF KONT 132329Z 1400/1506 26009KT P6SM BKN200 FM140300 VRB04KT P6SM BKN200 FM141200 VRB04KT 5SM HZ VCFG SCT002 BKN200 FM141600 VRB04KT 5SM HZ BKN200 FM142000 26011KT P6SM BKN200 FM150300 VRB04KT P6SM BKN200